createdAt,value
2023-03-08T00:00:06.103Z,0.00
2023-03-08T00:01:06.093Z,0.00
2023-03-08T00:02:06.100Z,0.00
2023-03-08T00:03:06.059Z,0.00
2023-03-08T00:04:06.197Z,0.00
2023-03-08T00:05:06.108Z,0.00
2023-03-08T00:06:06.033Z,0.00
2023-03-08T00:07:06.037Z,0.00
2023-03-08T00:08:06.023Z,0.00
2023-03-08T00:09:06.033Z,0.00
2023-03-08T00:10:06.016Z,0.00
2023-03-08T00:11:05.976Z,0.00
2023-03-08T00:12:05.971Z,0.00
2023-03-08T00:13:05.951Z,0.00
2023-03-08T00:14:05.972Z,0.00
2023-03-08T00:15:05.928Z,0.00
2023-03-08T00:16:05.939Z,0.00
2023-03-08T00:17:05.911Z,0.00
2023-03-08T00:18:05.900Z,0.00
2023-03-08T00:19:05.913Z,0.00
2023-03-08T00:20:05.878Z,0.00
2023-03-08T00:21:05.864Z,0.00
2023-03-08T00:22:05.856Z,0.00
2023-03-08T00:23:05.844Z,0.00
2023-03-08T00:24:05.855Z,0.00
2023-03-08T00:25:05.819Z,0.00
2023-03-08T00:26:05.856Z,0.00
2023-03-08T00:27:05.839Z,0.00
2023-03-08T00:28:05.799Z,0.00
2023-03-08T00:29:05.831Z,0.00
2023-03-08T00:30:05.774Z,0.00
2023-03-08T00:31:05.794Z,0.00
2023-03-08T00:32:05.793Z,0.00
2023-03-08T00:33:05.742Z,0.00
2023-03-08T00:34:05.753Z,0.00
2023-03-08T00:35:05.729Z,0.00
2023-03-08T00:36:05.714Z,0.00
2023-03-08T00:37:05.702Z,0.00
2023-03-08T00:38:05.682Z,0.00
2023-03-08T00:39:05.701Z,0.00
2023-03-08T00:40:05.666Z,0.00
2023-03-08T00:41:05.666Z,0.00
2023-03-08T00:42:05.672Z,0.00
2023-03-08T00:43:05.659Z,0.00
2023-03-08T00:44:05.659Z,0.00
2023-03-08T00:45:05.607Z,0.00
2023-03-08T00:46:05.610Z,0.00
2023-03-08T00:47:05.621Z,0.00
2023-03-08T00:48:05.582Z,0.00
2023-03-08T00:49:05.605Z,0.00
2023-03-08T00:50:05.568Z,0.00
2023-03-08T00:51:05.555Z,0.00
2023-03-08T00:52:05.539Z,0.00
2023-03-08T00:53:05.525Z,0.00
2023-03-08T00:54:05.542Z,0.00
2023-03-08T00:55:05.501Z,0.00
2023-03-08T00:56:05.496Z,0.00
2023-03-08T00:57:05.480Z,0.00
2023-03-08T00:58:05.496Z,0.00
2023-03-08T00:59:05.487Z,0.00
2023-03-08T01:00:05.453Z,0.00
2023-03-08T01:01:05.513Z,0.00
2023-03-08T01:02:05.429Z,0.00
2023-03-08T01:03:05.415Z,0.00
2023-03-08T01:04:05.437Z,0.00
2023-03-08T01:05:05.416Z,0.00
2023-03-08T01:06:05.422Z,0.00
2023-03-08T01:07:05.379Z,0.00
2023-03-08T01:08:05.362Z,0.00
2023-03-08T01:09:05.349Z,0.00
2023-03-08T01:10:05.423Z,0.00
2023-03-08T01:11:05.332Z,0.00
2023-03-08T01:12:05.325Z,0.00
2023-03-08T01:13:05.311Z,0.00
2023-03-08T01:14:05.317Z,0.00
2023-03-08T01:15:05.294Z,0.00
2023-03-08T01:16:05.296Z,0.00
2023-03-08T01:17:05.261Z,0.00
2023-03-08T01:18:05.311Z,0.00
2023-03-08T01:19:05.268Z,0.00
2023-03-08T01:20:05.240Z,0.00
2023-03-08T01:21:05.219Z,0.00
2023-03-08T01:22:05.214Z,0.00
2023-03-08T01:23:05.207Z,0.00
2023-03-08T01:24:05.219Z,0.00
2023-03-08T01:25:05.200Z,0.00
2023-03-08T01:26:05.176Z,0.00
2023-03-08T01:27:05.152Z,0.00
2023-03-08T01:28:05.148Z,0.00
2023-03-08T01:29:05.129Z,0.00
2023-03-08T01:30:05.184Z,0.00
2023-03-08T01:31:05.137Z,0.00
2023-03-08T01:32:05.170Z,0.00
2023-03-08T01:33:05.094Z,0.00
2023-03-08T01:34:05.078Z,0.00
2023-03-08T01:35:05.070Z,0.00
2023-03-08T01:36:05.152Z,0.00
2023-03-08T01:37:05.050Z,0.00
2023-03-08T01:38:05.047Z,0.00
2023-03-08T01:39:05.023Z,0.00
2023-03-08T01:40:05.034Z,0.00
2023-03-08T01:41:05.047Z,0.00
2023-03-08T01:42:05.006Z,0.00
2023-03-08T01:43:04.981Z,0.00
2023-03-08T01:44:04.985Z,0.00
2023-03-08T01:45:04.973Z,0.00
2023-03-08T01:46:04.996Z,0.00
2023-03-08T01:47:04.948Z,0.00
2023-03-08T01:48:04.930Z,0.00
2023-03-08T01:49:04.913Z,0.00
2023-03-08T01:50:04.911Z,0.00
2023-03-08T01:51:04.947Z,0.00
2023-03-08T01:52:04.889Z,0.00
2023-03-08T01:53:04.872Z,0.00
2023-03-08T01:54:04.864Z,0.00
2023-03-08T01:55:04.851Z,0.00
2023-03-08T01:56:04.844Z,0.00
2023-03-08T01:57:04.850Z,0.00
2023-03-08T01:58:04.824Z,0.00
2023-03-08T01:59:05.432Z,0.00
2023-03-08T02:00:04.803Z,0.00
2023-03-08T02:01:04.844Z,0.00
2023-03-08T02:02:04.843Z,0.00
2023-03-08T02:03:04.768Z,0.00
2023-03-08T02:04:04.761Z,0.00
2023-03-08T02:05:04.755Z,0.00
2023-03-08T02:06:04.735Z,0.00
2023-03-08T02:07:04.741Z,0.00
2023-03-08T02:08:04.715Z,0.00
2023-03-08T02:09:04.714Z,0.00
2023-03-08T02:10:04.692Z,0.00
2023-03-08T02:11:04.689Z,0.00
2023-03-08T02:12:04.700Z,0.00
2023-03-08T02:13:04.675Z,0.00
2023-03-08T02:14:04.664Z,0.00
2023-03-08T02:15:04.651Z,0.00
2023-03-08T02:16:04.638Z,0.00
2023-03-08T02:17:04.649Z,0.00
2023-03-08T02:18:04.640Z,0.00
2023-03-08T02:19:04.597Z,0.00
2023-03-08T02:20:04.598Z,0.00
2023-03-08T02:21:04.598Z,0.00
2023-03-08T02:22:04.576Z,0.00
2023-03-08T02:23:04.554Z,0.00
2023-03-08T02:24:04.545Z,0.00
2023-03-08T02:25:04.532Z,0.00
2023-03-08T02:26:04.547Z,0.00
2023-03-08T02:27:04.514Z,0.00
2023-03-08T02:28:04.528Z,0.00
2023-03-08T02:29:04.508Z,0.00
2023-03-08T02:30:04.489Z,0.00
2023-03-08T02:31:04.500Z,0.00
2023-03-08T02:32:04.511Z,0.00
2023-03-08T02:33:04.445Z,0.00
2023-03-08T02:34:04.466Z,0.00
2023-03-08T02:35:04.430Z,0.00
2023-03-08T02:36:04.489Z,0.00
2023-03-08T02:37:04.403Z,0.00
2023-03-08T02:38:04.409Z,0.00
2023-03-08T02:39:04.386Z,0.00
2023-03-08T02:40:04.384Z,0.00
2023-03-08T02:41:04.394Z,0.00
2023-03-08T02:42:04.354Z,0.00
2023-03-08T02:43:04.352Z,0.00
2023-03-08T02:44:04.366Z,0.00
2023-03-08T02:45:04.334Z,0.00
2023-03-08T02:46:04.338Z,0.00
2023-03-08T02:47:04.294Z,0.00
2023-03-08T02:48:04.289Z,0.00
2023-03-08T02:49:04.275Z,0.00
2023-03-08T02:50:04.328Z,0.00
2023-03-08T02:51:04.294Z,0.00
2023-03-08T02:52:04.270Z,0.00
2023-03-08T02:53:04.237Z,0.00
2023-03-08T02:54:04.226Z,0.00
2023-03-08T02:55:04.213Z,0.00
2023-03-08T02:56:04.203Z,0.00
2023-03-08T02:57:04.186Z,0.00
2023-03-08T02:58:04.207Z,0.00
2023-03-08T02:59:04.168Z,0.00
2023-03-08T03:00:04.153Z,0.00
2023-03-08T03:01:04.205Z,0.00
2023-03-08T03:02:04.156Z,0.00
2023-03-08T03:03:04.126Z,0.00
2023-03-08T03:04:04.141Z,0.00
2023-03-08T03:05:04.104Z,0.00
2023-03-08T03:06:04.171Z,0.00
2023-03-08T03:07:04.101Z,0.00
2023-03-08T03:08:04.077Z,0.00
2023-03-08T03:09:04.057Z,0.00
2023-03-08T03:10:04.060Z,0.00
2023-03-08T03:11:04.058Z,0.00
2023-03-08T03:12:04.038Z,0.00
2023-03-08T03:13:04.016Z,0.00
2023-03-08T03:14:04.008Z,0.00
2023-03-08T03:15:03.992Z,0.00
2023-03-08T03:16:04.077Z,0.00
2023-03-08T03:17:03.968Z,0.00
2023-03-08T03:18:03.959Z,0.00
2023-03-08T03:19:03.977Z,0.00
2023-03-08T03:20:03.965Z,0.00
2023-03-08T03:21:03.923Z,0.00
2023-03-08T03:22:03.972Z,0.00
2023-03-08T03:23:03.900Z,0.00
2023-03-08T03:24:03.896Z,0.00
2023-03-08T03:25:03.897Z,0.00
2023-03-08T03:26:03.868Z,0.00
2023-03-08T03:27:03.859Z,0.00
2023-03-08T03:28:03.867Z,0.00
2023-03-08T03:29:03.839Z,0.00
2023-03-08T03:30:03.852Z,0.00
2023-03-08T03:31:03.902Z,0.00
2023-03-08T03:32:03.845Z,0.00
2023-03-08T03:33:03.796Z,0.00
2023-03-08T03:34:03.787Z,0.00
2023-03-08T03:35:03.800Z,0.00
2023-03-08T03:36:03.795Z,0.00
2023-03-08T03:37:03.749Z,0.00
2023-03-08T03:38:03.767Z,0.00
2023-03-08T03:39:03.749Z,0.00
2023-03-08T03:40:03.722Z,0.00
2023-03-08T03:41:03.704Z,0.00
2023-03-08T03:42:03.696Z,0.00
2023-03-08T03:43:03.710Z,0.00
2023-03-08T03:44:03.709Z,0.00
2023-03-08T03:45:03.666Z,0.00
2023-03-08T03:46:03.694Z,0.00
2023-03-08T03:47:03.640Z,0.00
2023-03-08T03:48:03.645Z,0.00
2023-03-08T03:49:03.632Z,0.00
2023-03-08T03:50:03.639Z,0.00
2023-03-08T03:51:03.628Z,0.00
2023-03-08T03:52:03.594Z,0.00
2023-03-08T03:53:03.590Z,0.00
2023-03-08T03:54:03.600Z,0.00
2023-03-08T03:55:03.565Z,0.00
2023-03-08T03:56:03.597Z,0.00
2023-03-08T03:57:03.542Z,0.00
2023-03-08T03:58:03.551Z,0.00
2023-03-08T03:59:03.520Z,0.00
2023-03-08T04:00:03.513Z,0.00
2023-03-08T04:01:03.498Z,0.00
2023-03-08T04:02:03.518Z,0.00
2023-03-08T04:03:03.595Z,0.00
2023-03-08T04:04:05.529Z,0.00
2023-03-08T04:05:03.461Z,0.00
2023-03-08T04:06:03.444Z,0.00
2023-03-08T04:07:03.438Z,0.00
2023-03-08T04:08:03.446Z,0.00
2023-03-08T04:09:03.435Z,0.00
2023-03-08T04:10:03.460Z,0.00
2023-03-08T04:11:03.399Z,0.00
2023-03-08T04:12:03.387Z,0.00
2023-03-08T04:13:03.401Z,0.00
2023-03-08T04:14:03.360Z,0.00
2023-03-08T04:15:03.348Z,0.00
2023-03-08T04:16:03.354Z,0.00
2023-03-08T04:17:03.364Z,0.00
2023-03-08T04:18:03.357Z,0.00
2023-03-08T04:19:03.316Z,0.00
2023-03-08T04:20:03.295Z,0.00
2023-03-08T04:21:03.289Z,0.00
2023-03-08T04:22:03.288Z,0.00
2023-03-08T04:23:03.302Z,0.00
2023-03-08T04:24:03.258Z,0.00
2023-03-08T04:25:03.259Z,0.00
2023-03-08T04:26:03.250Z,0.00
2023-03-08T04:27:03.250Z,0.00
2023-03-08T04:28:03.214Z,0.00
2023-03-08T04:29:03.202Z,0.00
2023-03-08T04:30:03.189Z,0.00
2023-03-08T04:31:03.246Z,0.00
2023-03-08T04:32:03.186Z,0.00
2023-03-08T04:33:03.191Z,0.00
2023-03-08T04:34:03.175Z,0.00
2023-03-08T04:35:03.135Z,0.00
2023-03-08T04:36:03.142Z,0.00
2023-03-08T04:37:03.112Z,0.00
2023-03-08T04:38:03.108Z,0.00
2023-03-08T04:39:03.113Z,0.00
2023-03-08T04:40:03.097Z,0.00
2023-03-08T04:41:03.072Z,0.00
2023-03-08T04:42:03.088Z,0.00
2023-03-08T04:43:03.053Z,0.00
2023-03-08T04:44:03.057Z,0.00
2023-03-08T04:45:03.029Z,0.00
2023-03-08T04:46:03.019Z,0.00
2023-03-08T04:47:03.049Z,0.00
2023-03-08T04:48:03.023Z,0.00
2023-03-08T04:49:02.992Z,0.00
2023-03-08T04:50:02.976Z,0.00
2023-03-08T04:51:02.961Z,0.00
2023-03-08T04:52:02.953Z,0.00
2023-03-08T04:53:02.985Z,0.00
2023-03-08T04:54:02.931Z,0.00
2023-03-08T04:55:02.917Z,0.00
2023-03-08T04:56:02.905Z,0.00
2023-03-08T04:57:02.910Z,0.00
2023-03-08T04:58:02.948Z,0.00
2023-03-08T04:59:02.884Z,0.00
2023-03-08T05:00:02.858Z,0.00
2023-03-08T05:01:02.866Z,0.00
2023-03-08T05:02:02.896Z,0.00
2023-03-08T05:03:02.833Z,0.00
2023-03-08T05:04:02.820Z,0.00
2023-03-08T05:05:02.853Z,0.00
2023-03-08T05:06:02.800Z,0.00
2023-03-08T05:07:02.818Z,0.00
2023-03-08T05:08:02.799Z,0.00
2023-03-08T05:09:02.773Z,0.00
2023-03-08T05:10:02.755Z,0.00
2023-03-08T05:11:02.747Z,0.00
2023-03-08T05:12:02.784Z,0.00
2023-03-08T05:13:02.755Z,0.00
2023-03-08T05:14:02.871Z,0.00
2023-03-08T05:15:02.704Z,0.00
2023-03-08T05:16:02.760Z,0.00
2023-03-08T05:17:02.704Z,0.00
2023-03-08T05:18:02.692Z,0.00
2023-03-08T05:19:02.662Z,0.00
2023-03-08T05:20:02.644Z,0.00
2023-03-08T05:21:02.664Z,0.00
2023-03-08T05:22:02.628Z,0.00
2023-03-08T05:23:02.617Z,0.00
2023-03-08T05:24:02.629Z,0.00
2023-03-08T05:25:02.616Z,0.00
2023-03-08T05:26:02.615Z,0.00
2023-03-08T05:27:02.584Z,0.00
2023-03-08T05:28:02.566Z,0.00
2023-03-08T05:29:02.573Z,0.00
2023-03-08T05:30:02.563Z,0.00
2023-03-08T05:31:02.532Z,0.00
2023-03-08T05:32:02.517Z,0.00
2023-03-08T05:33:02.520Z,0.00
2023-03-08T05:34:02.514Z,0.00
2023-03-08T05:35:02.490Z,0.00
2023-03-08T05:36:02.490Z,0.00
2023-03-08T05:37:02.468Z,0.00
2023-03-08T05:38:02.455Z,0.00
2023-03-08T05:39:02.488Z,0.00
2023-03-08T05:40:02.426Z,0.00
2023-03-08T05:41:02.418Z,0.00
2023-03-08T05:42:02.412Z,0.00
2023-03-08T05:43:02.424Z,0.00
2023-03-08T05:44:02.416Z,0.00
2023-03-08T05:45:02.425Z,0.00
2023-03-08T05:46:02.522Z,0.00
2023-03-08T05:47:02.360Z,0.00
2023-03-08T05:48:02.344Z,0.00
2023-03-08T05:49:02.355Z,0.00
2023-03-08T05:50:02.328Z,0.00
2023-03-08T05:51:02.318Z,0.00
2023-03-08T05:52:02.298Z,0.00
2023-03-08T05:53:02.295Z,0.00
2023-03-08T05:54:02.294Z,0.00
2023-03-08T05:55:02.303Z,0.00
2023-03-08T05:56:02.257Z,0.00
2023-03-08T05:57:02.247Z,0.00
2023-03-08T05:58:02.236Z,5.62
2023-03-08T05:59:02.248Z,5.62
2023-03-08T06:00:02.229Z,5.62
2023-03-08T06:01:02.206Z,5.62
2023-03-08T06:02:02.217Z,5.62
2023-03-08T06:03:02.220Z,5.62
2023-03-08T06:04:02.165Z,5.62
2023-03-08T06:05:02.151Z,5.62
2023-03-08T06:06:02.139Z,5.62
2023-03-08T06:07:02.137Z,5.62
2023-03-08T06:08:02.121Z,5.62
2023-03-08T06:09:02.135Z,5.62
2023-03-08T06:10:02.102Z,5.62
2023-03-08T06:11:02.133Z,5.62
2023-03-08T06:12:02.079Z,5.62
2023-03-08T06:13:02.087Z,11.25
2023-03-08T06:14:02.062Z,11.25
2023-03-08T06:15:02.079Z,11.25
2023-03-08T06:16:02.060Z,11.25
2023-03-08T06:17:02.128Z,11.25
2023-03-08T06:18:02.034Z,11.25
2023-03-08T06:19:02.007Z,11.25
2023-03-08T06:20:01.987Z,11.25
2023-03-08T06:21:02.016Z,11.25
2023-03-08T06:22:01.982Z,5.62
2023-03-08T06:23:01.963Z,11.25
2023-03-08T06:24:01.947Z,11.25
2023-03-08T06:25:01.967Z,11.25
2023-03-08T06:26:01.947Z,11.25
2023-03-08T06:27:01.917Z,11.25
2023-03-08T06:28:01.913Z,11.25
2023-03-08T06:29:01.904Z,11.25
2023-03-08T06:30:01.880Z,11.25
2023-03-08T06:31:02.007Z,11.25
2023-03-08T06:32:02.254Z,11.25
2023-03-08T06:33:01.878Z,16.88
2023-03-08T06:34:01.870Z,16.88
2023-03-08T06:35:01.855Z,16.88
2023-03-08T06:36:01.875Z,11.25
2023-03-08T06:37:01.814Z,11.25
2023-03-08T06:38:01.823Z,11.25
2023-03-08T06:39:01.798Z,11.25
2023-03-08T06:40:01.781Z,11.25
2023-03-08T06:41:01.799Z,11.25
2023-03-08T06:42:01.762Z,16.88
2023-03-08T06:43:01.775Z,16.88
2023-03-08T06:44:01.747Z,16.88
2023-03-08T06:45:01.730Z,16.88
2023-03-08T06:46:01.797Z,22.50
2023-03-08T06:47:01.712Z,22.50
2023-03-08T06:48:01.720Z,22.50
2023-03-08T06:49:01.697Z,22.50
2023-03-08T06:50:01.701Z,22.50
2023-03-08T06:51:01.693Z,28.12
2023-03-08T06:52:01.656Z,22.50
2023-03-08T06:53:01.656Z,16.88
2023-03-08T06:54:01.650Z,22.50
2023-03-08T06:55:01.633Z,22.50
2023-03-08T06:56:01.628Z,28.12
2023-03-08T06:57:01.606Z,28.12
2023-03-08T06:58:01.595Z,33.75
2023-03-08T06:59:01.582Z,33.75
2023-03-08T07:00:01.776Z,33.75
2023-03-08T07:01:01.654Z,33.75
2023-03-08T07:02:01.550Z,33.75
2023-03-08T07:03:01.541Z,28.12
2023-03-08T07:04:01.608Z,28.12
2023-03-08T07:05:01.506Z,28.12
2023-03-08T07:06:01.559Z,33.75
2023-03-08T07:07:01.526Z,33.75
2023-03-08T07:08:01.477Z,39.38
2023-03-08T07:09:01.494Z,33.75
2023-03-08T07:10:01.462Z,33.75
2023-03-08T07:11:01.453Z,33.75
2023-03-08T07:12:01.437Z,33.75
2023-03-08T07:13:01.432Z,39.38
2023-03-08T07:14:01.444Z,33.75
2023-03-08T07:15:01.420Z,33.75
2023-03-08T07:16:01.416Z,33.75
2023-03-08T07:17:01.384Z,33.75
2023-03-08T07:18:01.384Z,33.75
2023-03-08T07:19:01.391Z,28.12
2023-03-08T07:20:01.351Z,28.12
2023-03-08T07:21:01.344Z,28.12
2023-03-08T07:22:01.351Z,33.75
2023-03-08T07:23:01.322Z,33.75
2023-03-08T07:24:01.326Z,33.75
2023-03-08T07:25:01.300Z,33.75
2023-03-08T07:26:01.303Z,28.12
2023-03-08T07:27:01.273Z,28.12
2023-03-08T07:28:01.263Z,28.12
2023-03-08T07:29:01.255Z,28.12
2023-03-08T07:30:01.244Z,33.75
2023-03-08T07:31:01.257Z,33.75
2023-03-08T07:32:01.327Z,33.75
2023-03-08T07:33:01.273Z,39.38
2023-03-08T07:34:01.198Z,39.38
2023-03-08T07:35:01.185Z,33.75
2023-03-08T07:36:01.217Z,33.75
2023-03-08T07:37:01.166Z,33.75
2023-03-08T07:38:01.284Z,33.75
2023-03-08T07:39:01.164Z,33.75
2023-03-08T07:40:01.167Z,33.75
2023-03-08T07:41:01.123Z,33.75
2023-03-08T07:42:01.138Z,39.38
2023-03-08T07:43:01.133Z,39.38
2023-03-08T07:44:01.088Z,39.38
2023-03-08T07:45:01.091Z,39.38
2023-03-08T07:46:01.177Z,39.38
2023-03-08T07:47:01.062Z,39.38
2023-03-08T07:48:01.048Z,39.38
2023-03-08T07:49:01.039Z,39.38
2023-03-08T07:50:01.032Z,45.00
2023-03-08T07:51:01.045Z,45.00
2023-03-08T07:52:01.011Z,45.00
2023-03-08T07:53:00.995Z,45.00
2023-03-08T07:54:01.008Z,45.00
2023-03-08T07:55:00.977Z,45.00
2023-03-08T07:56:00.993Z,50.62
2023-03-08T07:57:00.958Z,50.62
2023-03-08T07:58:00.938Z,50.62
2023-03-08T07:59:00.934Z,45.00
2023-03-08T08:00:00.931Z,45.00
2023-03-08T08:01:00.946Z,50.62
2023-03-08T08:02:00.903Z,50.62
2023-03-08T08:03:00.953Z,56.25
2023-03-08T08:04:00.943Z,67.50
2023-03-08T08:05:00.932Z,78.75
2023-03-08T08:06:00.884Z,61.88
2023-03-08T08:07:00.851Z,56.25
2023-03-08T08:08:00.848Z,61.88
2023-03-08T08:09:00.827Z,61.88
2023-03-08T08:10:00.834Z,61.88
2023-03-08T08:11:00.833Z,56.25
2023-03-08T08:12:00.789Z,61.88
2023-03-08T08:13:00.788Z,67.50
2023-03-08T08:14:00.784Z,67.50
2023-03-08T08:15:00.747Z,67.50
2023-03-08T08:16:00.875Z,67.50
2023-03-08T08:17:00.738Z,84.38
2023-03-08T08:18:00.731Z,67.50
2023-03-08T08:19:00.739Z,78.75
2023-03-08T08:20:00.738Z,73.12
2023-03-08T08:21:00.703Z,73.12
2023-03-08T08:22:00.676Z,73.12
2023-03-08T08:23:00.676Z,73.12
2023-03-08T08:24:00.689Z,78.75
2023-03-08T08:25:00.648Z,78.75
2023-03-08T08:26:00.670Z,84.38
2023-03-08T08:27:00.650Z,84.38
2023-03-08T08:28:00.618Z,84.38
2023-03-08T08:29:00.619Z,84.38
2023-03-08T08:30:00.597Z,90.00
2023-03-08T08:31:00.654Z,90.00
2023-03-08T08:32:00.592Z,95.62
2023-03-08T08:33:00.558Z,95.62
2023-03-08T08:34:00.556Z,95.62
2023-03-08T08:35:00.590Z,101.25
2023-03-08T08:36:00.556Z,90.00
2023-03-08T08:37:00.549Z,90.00
2023-03-08T08:38:00.507Z,90.00
2023-03-08T08:39:00.496Z,106.88
2023-03-08T08:40:00.540Z,95.62
2023-03-08T08:41:00.515Z,101.25
2023-03-08T08:42:00.508Z,95.62
2023-03-08T08:43:00.470Z,95.62
2023-03-08T08:44:00.502Z,101.25
2023-03-08T08:45:00.432Z,84.38
2023-03-08T08:46:00.449Z,61.88
2023-03-08T08:47:00.427Z,61.88
2023-03-08T08:48:00.395Z,90.00
2023-03-08T08:49:00.386Z,84.38
2023-03-08T08:50:00.378Z,78.75
2023-03-08T08:51:00.357Z,78.75
2023-03-08T08:52:00.381Z,78.75
2023-03-08T08:53:00.435Z,61.88
2023-03-08T08:54:00.362Z,45.00
2023-03-08T08:55:00.359Z,39.38
2023-03-08T08:56:00.314Z,56.25
2023-03-08T08:57:00.312Z,78.75
2023-03-08T08:58:00.308Z,101.25
2023-03-08T08:59:00.339Z,101.25
2023-03-08T09:00:00.288Z,95.62
2023-03-08T09:01:00.255Z,78.75
2023-03-08T09:02:00.368Z,61.88
2023-03-08T09:03:00.231Z,67.50
2023-03-08T09:04:00.342Z,73.12
2023-03-08T09:05:00.278Z,73.12
2023-03-08T09:06:00.199Z,67.50
2023-03-08T09:07:00.189Z,61.88
2023-03-08T09:08:00.182Z,61.88
2023-03-08T09:09:00.184Z,90.00
2023-03-08T09:10:00.157Z,101.25
2023-03-08T09:11:00.143Z,95.62
2023-03-08T09:12:00.145Z,101.25
2023-03-08T09:13:00.169Z,112.50
2023-03-08T09:14:00.169Z,118.12
2023-03-08T09:15:00.129Z,123.75
2023-03-08T09:16:00.120Z,95.62
2023-03-08T09:17:00.086Z,84.38
2023-03-08T09:18:00.087Z,95.62
2023-03-08T09:19:00.106Z,90.00
2023-03-08T09:20:00.074Z,106.88
2023-03-08T09:21:00.037Z,123.75
2023-03-08T09:22:00.038Z,101.25
2023-03-08T09:23:00.058Z,73.12
2023-03-08T09:24:00.051Z,61.88
2023-03-08T09:24:59.994Z,90.00
2023-03-08T09:26:02.364Z,106.88
2023-03-08T09:26:59.972Z,112.50
2023-03-08T09:27:59.985Z,106.88
2023-03-08T09:28:59.982Z,84.38
2023-03-08T09:29:59.964Z,61.88
2023-03-08T09:30:59.945Z,67.50
2023-03-08T09:32:00.027Z,78.75
2023-03-08T09:32:59.913Z,106.88
2023-03-08T09:33:59.904Z,123.75
2023-03-08T09:34:59.910Z,106.88
2023-03-08T09:35:59.968Z,106.88
2023-03-08T09:36:59.874Z,106.88
2023-03-08T09:37:59.872Z,112.50
2023-03-08T09:38:59.846Z,106.88
2023-03-08T09:39:59.870Z,95.62
2023-03-08T09:40:59.830Z,95.62
2023-03-08T09:41:59.827Z,90.00
2023-03-08T09:42:59.799Z,78.75
2023-03-08T09:43:59.800Z,67.50
2023-03-08T09:44:59.806Z,56.25
2023-03-08T09:45:59.849Z,45.00
2023-03-08T09:46:59.791Z,45.00
2023-03-08T09:47:59.823Z,45.00
2023-03-08T09:48:59.745Z,50.62
2023-03-08T09:49:59.732Z,50.62
2023-03-08T09:50:59.724Z,45.00
2023-03-08T09:51:59.744Z,45.00
2023-03-08T09:52:59.727Z,45.00
2023-03-08T09:53:59.692Z,61.88
2023-03-08T09:54:59.799Z,67.50
2023-03-08T09:55:59.712Z,78.75
2023-03-08T09:56:59.650Z,95.62
2023-03-08T09:57:59.678Z,101.25
2023-03-08T09:58:59.632Z,112.50
2023-03-08T09:59:59.625Z,123.75
2023-03-08T10:00:59.670Z,118.12
2023-03-08T10:01:59.638Z,118.12
2023-03-08T10:02:59.667Z,118.12
2023-03-08T10:03:59.672Z,123.75
2023-03-08T10:05:11.953Z,129.38
2023-03-08T10:06:00.558Z,123.75
2023-03-08T10:06:59.548Z,123.75
2023-03-08T10:07:59.530Z,123.75
2023-03-08T10:08:59.523Z,129.38
2023-03-08T10:09:59.519Z,135.00
2023-03-08T10:10:59.541Z,129.38
2023-03-08T10:11:59.496Z,135.00
2023-03-08T10:12:59.482Z,140.62
2023-03-08T10:13:59.547Z,151.88
2023-03-08T10:14:59.480Z,146.25
2023-03-08T10:15:59.474Z,140.62
2023-03-08T10:16:59.524Z,140.62
2023-03-08T10:17:59.452Z,140.62
2023-03-08T10:18:59.415Z,146.25
2023-03-08T10:19:59.415Z,157.50
2023-03-08T10:20:59.416Z,140.62
2023-03-08T10:21:59.384Z,129.38
2023-03-08T10:22:59.370Z,135.00
2023-03-08T10:23:59.362Z,146.25
2023-03-08T10:24:59.348Z,140.62
2023-03-08T10:25:59.363Z,146.25
2023-03-08T10:26:59.335Z,135.00
2023-03-08T10:27:59.332Z,106.88
2023-03-08T10:28:59.299Z,95.62
2023-03-08T10:29:59.297Z,95.62
2023-03-08T10:30:59.388Z,112.50
2023-03-08T10:31:59.298Z,106.88
2023-03-08T10:32:59.275Z,112.50
2023-03-08T10:33:59.336Z,129.38
2023-03-08T10:34:59.268Z,151.88
2023-03-08T10:35:59.281Z,163.12
2023-03-08T10:36:59.249Z,163.12
2023-03-08T10:37:59.213Z,146.25
2023-03-08T10:38:59.212Z,123.75
2023-03-08T10:39:59.192Z,101.25
2023-03-08T10:40:59.177Z,78.75
2023-03-08T10:41:59.184Z,67.50
2023-03-08T10:42:59.154Z,78.75
2023-03-08T10:43:59.168Z,95.62
2023-03-08T10:44:59.123Z,118.12
2023-03-08T10:45:59.146Z,135.00
2023-03-08T10:46:59.115Z,140.62
2023-03-08T10:47:59.098Z,135.00
2023-03-08T10:48:59.107Z,146.25
2023-03-08T10:49:59.094Z,135.00
2023-03-08T10:50:59.061Z,129.38
2023-03-08T10:51:59.098Z,151.88
2023-03-08T10:52:59.043Z,146.25
2023-03-08T10:53:59.043Z,151.88
2023-03-08T10:54:59.042Z,196.88
2023-03-08T10:55:59.057Z,129.38
2023-03-08T10:56:59.108Z,129.38
2023-03-08T10:57:58.986Z,135.00
2023-03-08T10:58:58.978Z,151.88
2023-03-08T10:59:58.972Z,163.12
2023-03-08T11:00:58.951Z,180.00
2023-03-08T11:01:58.973Z,146.25
2023-03-08T11:02:58.935Z,157.50
2023-03-08T11:03:58.926Z,185.62
2023-03-08T11:04:59.031Z,140.62
2023-03-08T11:05:59.006Z,146.25
2023-03-08T11:06:58.906Z,129.38
2023-03-08T11:07:58.884Z,129.38
2023-03-08T11:08:58.864Z,118.12
2023-03-08T11:09:58.889Z,101.25
2023-03-08T11:10:58.947Z,95.62
2023-03-08T11:11:58.835Z,95.62
2023-03-08T11:12:58.840Z,101.25
2023-03-08T11:13:58.812Z,90.00
2023-03-08T11:14:58.843Z,73.12
2023-03-08T11:15:58.842Z,61.88
2023-03-08T11:16:58.778Z,56.25
2023-03-08T11:17:58.794Z,50.62
2023-03-08T11:18:58.774Z,50.62
2023-03-08T11:19:58.784Z,118.12
2023-03-08T11:20:58.736Z,101.25
2023-03-08T11:21:58.750Z,118.12
2023-03-08T11:22:58.745Z,140.62
2023-03-08T11:23:58.830Z,146.25
2023-03-08T11:24:58.701Z,174.38
2023-03-08T11:25:58.683Z,196.88
2023-03-08T11:26:58.709Z,180.00
2023-03-08T11:27:58.743Z,174.38
2023-03-08T11:28:58.749Z,140.62
2023-03-08T11:29:58.635Z,129.38
2023-03-08T11:30:58.683Z,151.88
2023-03-08T11:31:58.675Z,163.12
2023-03-08T11:32:58.717Z,151.88
2023-03-08T11:33:58.821Z,168.75
2023-03-08T11:34:58.584Z,151.88
2023-03-08T11:35:58.576Z,140.62
2023-03-08T11:36:58.559Z,146.25
2023-03-08T11:37:58.603Z,140.62
2023-03-08T11:38:58.552Z,129.38
2023-03-08T11:39:58.524Z,129.38
2023-03-08T11:40:58.518Z,135.00
2023-03-08T11:41:58.505Z,129.38
2023-03-08T11:42:58.512Z,129.38
2023-03-08T11:43:58.563Z,123.75
2023-03-08T11:44:58.479Z,123.75
2023-03-08T11:45:58.477Z,112.50
2023-03-08T11:46:58.495Z,101.25
2023-03-08T11:47:58.441Z,90.00
2023-03-08T11:48:58.498Z,78.75
2023-03-08T11:49:58.416Z,67.50
2023-03-08T11:50:58.411Z,61.88
2023-03-08T11:51:58.392Z,61.88
2023-03-08T11:52:58.391Z,73.12
2023-03-08T11:53:58.432Z,78.75
2023-03-08T11:54:58.384Z,90.00
2023-03-08T11:55:58.359Z,90.00
2023-03-08T11:56:58.361Z,90.00
2023-03-08T11:57:58.332Z,78.75
2023-03-08T11:58:58.340Z,73.12
2023-03-08T11:59:58.311Z,67.50
2023-03-08T12:00:58.292Z,61.88
2023-03-08T12:01:58.365Z,61.88
2023-03-08T12:02:58.286Z,67.50
2023-03-08T12:03:58.471Z,73.12
2023-03-08T12:04:58.455Z,78.75
2023-03-08T12:05:58.356Z,84.38
2023-03-08T12:06:58.285Z,84.38
2023-03-08T12:07:58.310Z,78.75
2023-03-08T12:08:58.227Z,73.12
2023-03-08T12:09:58.333Z,67.50
2023-03-08T12:10:58.188Z,61.88
2023-03-08T12:11:58.183Z,56.25
2023-03-08T12:12:58.167Z,56.25
2023-03-08T12:13:58.146Z,56.25
2023-03-08T12:14:58.162Z,61.88
2023-03-08T12:15:58.218Z,61.88
2023-03-08T12:16:58.331Z,56.25
2023-03-08T12:17:58.112Z,56.25
2023-03-08T12:18:58.127Z,50.62
2023-03-08T12:19:58.091Z,50.62
2023-03-08T12:20:58.071Z,45.00
2023-03-08T12:21:58.070Z,45.00
2023-03-08T12:22:58.166Z,39.38
2023-03-08T12:23:58.109Z,39.38
2023-03-08T12:24:58.043Z,33.75
2023-03-08T12:25:58.038Z,33.75
2023-03-08T12:26:58.078Z,39.38
2023-03-08T12:27:58.053Z,45.00
2023-03-08T12:28:58.008Z,56.25
2023-03-08T12:29:57.979Z,61.88
2023-03-08T12:30:57.966Z,67.50
2023-03-08T12:31:58.124Z,67.50
2023-03-08T12:32:58.166Z,67.50
2023-03-08T12:33:57.949Z,67.50
2023-03-08T12:34:57.928Z,61.88
2023-03-08T12:35:58.083Z,61.88
2023-03-08T12:36:57.980Z,61.88
2023-03-08T12:37:57.902Z,61.88
2023-03-08T12:38:57.886Z,67.50
2023-03-08T12:39:57.866Z,61.88
2023-03-08T12:40:57.878Z,61.88
2023-03-08T12:41:57.900Z,61.88
2023-03-08T12:42:57.836Z,61.88
2023-03-08T12:43:57.830Z,61.88
2023-03-08T12:44:57.820Z,61.88
2023-03-08T12:45:57.879Z,61.88
2023-03-08T12:47:03.226Z,61.88
2023-03-08T12:47:58.830Z,56.25
2023-03-08T12:48:57.818Z,56.25
2023-03-08T12:49:57.812Z,56.25
2023-03-08T12:51:00.032Z,50.62
2023-03-08T12:51:57.829Z,50.62
2023-03-08T12:52:57.767Z,50.62
2023-03-08T12:53:57.722Z,50.62
2023-03-08T12:54:57.705Z,50.62
2023-03-08T12:55:57.690Z,56.25
2023-03-08T12:56:57.706Z,56.25
2023-03-08T12:57:57.695Z,56.25
2023-03-08T12:58:57.666Z,56.25
2023-03-08T12:59:57.658Z,56.25